createdAt,value
2018-05-02T00:00:05.691Z,1.20
2018-05-02T00:02:39.134Z,1.40
2018-05-02T00:05:12.402Z,1.20
2018-05-02T00:07:45.541Z,1.37
2018-05-02T00:10:19.249Z,1.30
2018-05-02T00:12:52.432Z,1.03
2018-05-02T00:15:25.548Z,1.20
2018-05-02T00:17:58.943Z,1.27
2018-05-02T00:20:32.358Z,1.43
2018-05-02T00:23:05.447Z,1.50
2018-05-02T00:25:38.920Z,1.23
2018-05-02T00:28:12.392Z,1.20
2018-05-02T00:30:45.478Z,1.40
2018-05-02T00:33:18.594Z,1.30
2018-05-02T00:35:51.889Z,1.13
2018-05-02T00:38:25.271Z,1.33
2018-05-02T00:40:58.482Z,1.67
2018-05-02T00:43:32.723Z,1.27
2018-05-02T00:46:06.204Z,1.20
2018-05-02T00:48:48.023Z,1.40
2018-05-02T00:51:21.578Z,1.50
2018-05-02T00:53:55.244Z,1.30
2018-05-02T00:56:28.592Z,1.20
2018-05-02T00:59:01.713Z,1.40
2018-05-02T01:01:35.598Z,1.13
2018-05-02T01:04:08.872Z,1.53
2018-05-02T01:06:41.966Z,1.63
2018-05-02T01:09:15.709Z,1.53
2018-05-02T01:11:48.991Z,1.47
2018-05-02T01:14:22.335Z,1.40
2018-05-02T01:16:55.854Z,1.60
2018-05-02T01:19:29.051Z,1.50
2018-05-02T01:22:02.214Z,1.50
2018-05-02T01:24:35.816Z,1.30
2018-05-02T01:27:10.071Z,1.40
2018-05-02T01:29:43.380Z,1.33
2018-05-02T01:32:17.190Z,1.40
2018-05-02T01:34:50.452Z,1.60
2018-05-02T01:37:23.569Z,1.30
2018-05-02T01:39:57.685Z,1.50
2018-05-02T01:42:31.399Z,1.40
2018-05-02T01:45:06.036Z,1.80
2018-05-02T01:47:39.388Z,1.60
2018-05-02T01:50:12.639Z,1.80
2018-05-02T01:52:45.699Z,1.53
2018-05-02T01:55:18.976Z,1.63
2018-05-02T01:57:52.182Z,1.70
2018-05-02T02:00:25.441Z,1.73
2018-05-02T02:02:58.992Z,1.53
2018-05-02T02:05:32.392Z,1.70
2018-05-02T02:08:05.658Z,1.77
2018-05-02T02:13:04.595Z,1.67
2018-05-02T02:15:37.679Z,1.50
2018-05-02T02:18:10.799Z,1.40
2018-05-02T02:20:44.383Z,1.60
2018-05-02T02:23:17.472Z,1.50
2018-05-02T02:25:50.741Z,1.57
2018-05-02T02:28:23.860Z,1.70
2018-05-02T02:30:57.130Z,1.60
2018-05-02T02:33:30.285Z,1.67
2018-05-02T02:36:03.434Z,1.60
2018-05-02T02:38:36.565Z,1.50
2018-05-02T02:41:10.015Z,1.40
2018-05-02T02:43:43.155Z,1.67
2018-05-02T02:46:16.190Z,1.60
2018-05-02T02:48:50.346Z,1.40
2018-05-02T02:51:23.420Z,2.00
2018-05-02T02:53:56.478Z,1.87
2018-05-02T02:56:30.322Z,2.13
2018-05-02T02:59:03.475Z,1.77
2018-05-02T03:01:36.609Z,1.83
2018-05-02T03:04:12.093Z,2.10
2018-05-02T03:06:45.204Z,1.70
2018-05-02T03:09:18.476Z,1.70
2018-05-02T03:11:51.852Z,1.77
2018-05-02T03:14:24.881Z,1.53
2018-05-02T03:16:58.040Z,1.70
2018-05-02T03:19:31.318Z,1.97
2018-05-02T03:22:04.378Z,2.00
2018-05-02T03:24:37.483Z,1.90
2018-05-02T03:27:11.234Z,1.77
2018-05-02T03:29:44.315Z,2.03
2018-05-02T03:32:17.651Z,1.80
2018-05-02T03:34:52.007Z,1.40
2018-05-02T03:37:26.982Z,1.80
2018-05-02T03:40:00.201Z,2.00
2018-05-02T03:42:33.876Z,1.70
2018-05-02T03:45:07.717Z,1.60
2018-05-02T03:47:40.887Z,1.80
2018-05-02T03:50:14.328Z,1.80
2018-05-02T03:52:47.328Z,1.50
2018-05-02T03:55:20.509Z,1.70
2018-05-02T03:57:53.893Z,1.83
2018-05-02T04:02:40.108Z,1.83
2018-05-02T04:05:26.466Z,1.70
2018-05-02T04:07:59.941Z,1.77
2018-05-02T04:10:33.602Z,1.70
2018-05-02T04:13:06.753Z,1.70
2018-05-02T04:15:41.507Z,1.90
2018-05-02T04:18:15.800Z,1.70
2018-05-02T04:20:49.949Z,1.90
2018-05-02T04:23:23.250Z,1.90
2018-05-02T04:25:56.450Z,2.00
2018-05-02T04:28:30.227Z,2.30
2018-05-02T04:31:04.069Z,2.33
2018-05-02T04:33:39.291Z,2.20
2018-05-02T04:36:12.368Z,2.13
2018-05-02T04:38:45.651Z,2.00
2018-05-02T04:41:19.419Z,2.50
2018-05-02T04:43:52.666Z,2.30
2018-05-02T04:46:25.977Z,2.47
2018-05-02T04:48:59.065Z,2.47
2018-05-02T04:51:33.695Z,2.43
2018-05-02T04:54:07.607Z,2.50
2018-05-02T04:56:42.188Z,2.70
2018-05-02T04:59:15.889Z,2.50
2018-05-02T05:01:49.610Z,2.50
2018-05-02T05:04:23.424Z,2.20
2018-05-02T05:06:56.794Z,2.70
2018-05-02T05:09:30.207Z,2.50
2018-05-02T05:12:03.632Z,2.43
2018-05-02T05:14:38.893Z,2.53
2018-05-02T05:17:17.010Z,2.60
2018-05-02T05:19:52.228Z,3.00
2018-05-02T05:22:27.372Z,2.63
2018-05-02T05:25:00.492Z,2.80
2018-05-02T05:27:33.821Z,2.87
2018-05-02T05:30:07.858Z,3.40
2018-05-02T05:32:42.479Z,2.80
2018-05-02T05:35:15.792Z,2.90
2018-05-02T05:37:50.187Z,2.30
2018-05-02T05:40:25.184Z,2.90
2018-05-02T05:42:58.630Z,3.10
2018-05-02T05:45:32.361Z,2.70
2018-05-02T05:48:05.688Z,2.47
2018-05-02T05:50:39.715Z,2.20
2018-05-02T05:53:13.330Z,2.63
2018-05-02T05:55:46.828Z,2.60
2018-05-02T05:58:20.190Z,2.37
2018-05-02T06:00:54.154Z,2.97
2018-05-02T06:03:27.351Z,2.70
2018-05-02T06:06:03.009Z,2.67
2018-05-02T06:08:37.655Z,3.20
2018-05-02T06:11:12.753Z,3.13
2018-05-02T06:13:46.337Z,4.13
2018-05-02T06:16:19.520Z,3.80
2018-05-02T06:18:53.598Z,3.47
2018-05-02T06:21:28.152Z,3.20
2018-05-02T06:24:01.696Z,4.30
2018-05-02T06:26:35.328Z,4.17
2018-05-02T06:29:09.282Z,3.67
2018-05-02T06:31:42.829Z,3.50
2018-05-02T06:34:17.211Z,2.70
2018-05-02T06:36:50.876Z,2.73
2018-05-02T06:39:24.417Z,2.50
2018-05-02T06:41:59.199Z,2.70
2018-05-02T06:44:32.777Z,2.70
2018-05-02T06:47:05.834Z,2.73
2018-05-02T06:49:41.492Z,2.30
2018-05-02T06:52:15.186Z,2.40
2018-05-02T06:54:48.688Z,3.30
2018-05-02T06:57:22.034Z,3.20
2018-05-02T06:59:55.718Z,3.10
2018-05-02T07:02:30.426Z,3.30
2018-05-02T07:05:04.037Z,3.30
2018-05-02T07:07:37.878Z,3.00
2018-05-02T07:10:13.249Z,2.70
2018-05-02T07:12:46.618Z,3.40
2018-05-02T07:15:20.239Z,2.60
2018-05-02T07:17:54.204Z,2.90
2018-05-02T07:20:29.151Z,2.90
2018-05-02T07:23:03.473Z,3.60
2018-05-02T07:25:36.717Z,3.30
2018-05-02T07:28:09.836Z,3.43
2018-05-02T07:30:43.981Z,3.07
2018-05-02T07:33:17.050Z,3.00
2018-05-02T07:35:50.543Z,2.73
2018-05-02T07:38:24.534Z,2.87
2018-05-02T07:40:57.807Z,3.00
2018-05-02T07:43:30.978Z,3.50
2018-05-02T07:46:05.411Z,3.43
2018-05-02T07:48:39.420Z,3.10
2018-05-02T07:51:12.678Z,3.40
2018-05-02T07:53:47.822Z,3.23
2018-05-02T07:56:21.043Z,4.00
2018-05-02T07:58:54.459Z,3.90
2018-05-02T08:01:29.156Z,3.93
2018-05-02T08:04:02.445Z,5.30
2018-05-02T08:06:35.645Z,4.73
2018-05-02T08:09:09.588Z,4.97
2018-05-02T08:11:42.679Z,4.30
2018-05-02T08:14:15.820Z,4.30
2018-05-02T08:16:49.829Z,4.40
2018-05-02T08:19:24.192Z,4.33
2018-05-02T08:21:57.496Z,4.07
2018-05-02T08:24:31.076Z,4.50
2018-05-02T08:27:04.991Z,3.73
2018-05-02T08:29:39.004Z,4.23
2018-05-02T08:32:13.417Z,3.77
2018-05-02T08:34:46.801Z,3.87
2018-05-02T08:37:20.664Z,3.80
2018-05-02T08:39:57.282Z,3.77
2018-05-02T08:42:34.645Z,3.30
2018-05-02T08:45:10.469Z,3.73
2018-05-02T08:47:46.757Z,3.57
2018-05-02T08:50:20.953Z,3.40
2018-05-02T08:52:54.826Z,5.93
2018-05-02T08:55:28.376Z,3.77
2018-05-02T08:58:01.477Z,3.93
2018-05-02T09:00:35.820Z,3.27
2018-05-02T09:03:08.935Z,2.73
2018-05-02T09:05:43.489Z,2.97
2018-05-02T09:08:17.235Z,2.63
2018-05-02T09:10:53.579Z,2.70
2018-05-02T09:13:29.626Z,2.63
2018-05-02T09:16:03.207Z,2.90
2018-05-02T09:18:39.330Z,2.33
2018-05-02T09:21:14.200Z,2.40
2018-05-02T09:23:49.198Z,2.70
2018-05-02T09:26:22.410Z,2.93
2018-05-02T09:28:56.527Z,2.60
2018-05-02T09:31:31.870Z,2.63
2018-05-02T09:34:05.047Z,2.70
2018-05-02T09:36:38.775Z,2.70
2018-05-02T09:39:12.490Z,2.50
2018-05-02T09:41:45.542Z,2.67
2018-05-02T09:44:19.906Z,2.57
2018-05-02T09:46:54.750Z,2.10
2018-05-02T09:49:28.825Z,2.40
2018-05-02T09:52:02.720Z,2.37
2018-05-02T09:54:37.637Z,2.60
2018-05-02T09:57:11.807Z,2.30
2018-05-02T09:59:45.443Z,2.50
2018-05-02T10:02:20.233Z,2.43
2018-05-02T10:04:53.877Z,2.10
2018-05-02T10:07:28.445Z,2.20
2018-05-02T10:10:04.599Z,2.43
2018-05-02T10:12:38.160Z,2.30
2018-05-02T10:15:11.936Z,2.27
2018-05-02T10:17:45.687Z,2.30
2018-05-02T10:20:19.196Z,2.03
2018-05-02T10:22:56.894Z,2.40
2018-05-02T10:25:30.089Z,2.40
2018-05-02T10:28:04.027Z,2.70
2018-05-02T10:30:38.993Z,2.10
2018-05-02T10:33:12.340Z,2.27
2018-05-02T10:35:47.192Z,2.30
2018-05-02T10:38:20.544Z,2.30
2018-05-02T10:40:54.384Z,2.53
2018-05-02T10:43:30.939Z,2.63
2018-05-02T10:46:08.098Z,2.60
2018-05-02T10:48:41.263Z,2.57
2018-05-02T10:51:16.351Z,2.37
2018-05-02T10:53:50.094Z,2.30
2018-05-02T10:56:23.275Z,2.33
2018-05-02T10:58:56.550Z,2.50
2018-05-02T11:01:30.611Z,2.67
2018-05-02T11:04:04.755Z,2.27
2018-05-02T11:06:37.921Z,2.40
2018-05-02T11:09:11.254Z,2.37
2018-05-02T11:11:46.101Z,2.50
2018-05-02T11:14:19.807Z,2.50
2018-05-02T11:16:53.456Z,2.50
2018-05-02T11:19:26.852Z,2.80
2018-05-02T11:22:00.130Z,2.47
2018-05-02T11:24:33.641Z,2.90
2018-05-02T11:27:07.278Z,2.67
2018-05-02T11:29:40.618Z,2.80
2018-05-02T11:32:15.993Z,2.80
2018-05-02T11:34:51.137Z,2.70
2018-05-02T11:37:24.716Z,2.70
2018-05-02T11:39:58.984Z,2.87
2018-05-02T11:42:35.084Z,2.63
2018-05-02T11:45:08.156Z,2.93
2018-05-02T11:47:41.667Z,2.67
2018-05-02T11:50:15.709Z,2.77
2018-05-02T11:52:48.931Z,2.70
2018-05-02T11:55:22.341Z,3.33
2018-05-02T11:57:56.460Z,3.00
2018-05-02T12:00:29.677Z,3.00
2018-05-02T12:03:02.852Z,3.00
2018-05-02T12:05:37.496Z,2.60
2018-05-02T12:08:10.851Z,2.93
2018-05-02T12:10:43.988Z,3.10
2018-05-02T12:13:18.519Z,2.60
2018-05-02T12:15:51.819Z,2.63
2018-05-02T12:18:26.189Z,3.23
2018-05-02T12:20:59.915Z,2.80
2018-05-02T12:23:32.922Z,3.10
2018-05-02T12:26:07.491Z,2.50
2018-05-02T12:28:40.878Z,2.90
2018-05-02T12:31:18.632Z,2.77
2018-05-02T12:34:00.311Z,2.60
2018-05-02T12:36:35.166Z,2.93
2018-05-02T12:39:08.262Z,3.10
2018-05-02T12:41:42.039Z,3.30
2018-05-02T12:44:15.845Z,2.90
2018-05-02T12:46:49.055Z,2.80
2018-05-02T12:49:23.183Z,2.83
2018-05-02T12:54:36.745Z,3.57
2018-05-02T12:57:10.179Z,3.07
2018-05-02T12:59:44.986Z,2.73
2018-05-02T13:02:18.868Z,2.70
2018-05-02T13:04:58.898Z,3.00
2018-05-02T13:07:36.142Z,3.10
2018-05-02T13:10:09.506Z,3.10
2018-05-02T13:12:43.774Z,3.23
2018-05-02T13:15:17.042Z,3.20
2018-05-02T13:17:51.604Z,3.63
2018-05-02T13:20:25.993Z,3.00
2018-05-02T13:22:59.168Z,3.30
2018-05-02T13:25:34.778Z,3.17
2018-05-02T13:28:35.053Z,3.33
2018-05-02T13:34:34.558Z,3.40
2018-05-02T13:37:11.712Z,3.13
2018-05-02T13:39:46.301Z,2.87
2018-05-02T13:42:19.620Z,3.03
2018-05-02T13:44:53.399Z,2.70
2018-05-02T13:47:31.486Z,3.37
2018-05-02T13:50:05.334Z,8.13
2018-05-02T13:52:39.046Z,6.70
2018-05-02T13:55:12.716Z,4.53
2018-05-02T13:57:45.855Z,3.60
2018-05-02T14:00:23.077Z,3.90
2018-05-02T14:02:56.273Z,3.67
2018-05-02T14:05:30.229Z,3.10
2018-05-02T14:08:04.030Z,4.67
2018-05-02T14:10:38.866Z,3.90
2018-05-02T14:13:13.283Z,5.63
2018-05-02T14:15:46.676Z,6.20
2018-05-02T14:18:20.702Z,9.47
2018-05-02T14:20:55.786Z,4.90
2018-05-02T14:23:28.974Z,3.30
2018-05-02T14:26:02.350Z,3.60
2018-05-02T14:28:36.634Z,3.40
2018-05-02T14:31:11.733Z,3.70
2018-05-02T14:33:45.700Z,3.60
2018-05-02T14:36:19.601Z,3.40
2018-05-02T14:38:53.136Z,3.50
2018-05-02T14:41:26.272Z,3.70
2018-05-02T14:43:59.757Z,3.43
2018-05-02T14:46:33.375Z,3.03
2018-05-02T14:49:07.617Z,3.17
2018-05-02T14:51:40.840Z,3.20
2018-05-02T14:54:16.033Z,3.43
2018-05-02T14:56:49.235Z,3.13
2018-05-02T14:59:23.830Z,3.40
2018-05-02T15:02:01.155Z,3.23
2018-05-02T15:04:39.150Z,5.43
2018-05-02T15:07:16.975Z,3.10
2018-05-02T15:09:52.210Z,3.20
2018-05-02T15:12:25.430Z,3.20
2018-05-02T15:14:59.298Z,3.27
2018-05-02T15:17:33.114Z,3.10
2018-05-02T15:20:07.031Z,3.33
2018-05-02T15:22:43.579Z,2.90
2018-05-02T15:25:17.338Z,3.03
2018-05-02T15:27:51.874Z,2.93
2018-05-02T15:30:25.543Z,2.87
2018-05-02T15:33:02.520Z,2.90
2018-05-02T15:35:36.106Z,3.40
2018-05-02T15:38:10.279Z,2.90
2018-05-02T15:40:46.328Z,3.07
2018-05-02T15:43:20.166Z,3.03
2018-05-02T15:45:53.628Z,3.10
2018-05-02T15:48:27.956Z,3.13
2018-05-02T15:51:03.212Z,3.10
2018-05-02T15:53:36.712Z,3.23
2018-05-02T15:56:10.230Z,3.20
2018-05-02T15:58:44.202Z,3.53
2018-05-02T16:01:20.321Z,3.77
2018-05-02T16:03:57.776Z,3.00
2018-05-02T16:06:31.247Z,2.77
2018-05-02T16:09:04.945Z,2.83
2018-05-02T16:11:39.406Z,3.00
2018-05-02T16:14:12.648Z,3.13
2018-05-02T16:16:47.437Z,3.00
2018-05-02T16:19:21.034Z,3.97
2018-05-02T16:21:54.607Z,3.03
2018-05-02T16:24:29.145Z,3.07
2018-05-02T16:27:02.472Z,3.00
2018-05-02T16:29:36.065Z,3.57
2018-05-02T16:32:09.844Z,4.13
2018-05-02T16:34:42.996Z,2.90
2018-05-02T16:37:16.661Z,3.33
2018-05-02T16:39:50.064Z,3.53
2018-05-02T16:42:23.241Z,3.43
2018-05-02T16:44:56.661Z,5.03
2018-05-02T16:47:30.419Z,4.00
2018-05-02T16:50:03.728Z,3.23
2018-05-02T16:52:36.883Z,3.20
2018-05-02T16:55:12.760Z,3.83
2018-05-02T16:57:46.460Z,3.03
2018-05-02T17:00:19.983Z,4.13
2018-05-02T17:02:54.641Z,3.27
2018-05-02T17:05:29.388Z,3.30
2018-05-02T17:08:03.162Z,3.30
2018-05-02T17:10:36.644Z,4.60
2018-05-02T17:13:10.375Z,3.90
2018-05-02T17:15:45.322Z,3.70
2018-05-02T17:18:19.446Z,2.87
2018-05-02T17:20:53.569Z,3.23
2018-05-02T17:23:26.636Z,3.10
2018-05-02T17:26:00.295Z,3.30
2018-05-02T17:28:33.833Z,3.23
2018-05-02T17:31:07.258Z,3.30
2018-05-02T17:33:40.271Z,3.20
2018-05-02T17:36:13.649Z,3.37
2018-05-02T17:38:46.970Z,3.30
2018-05-02T17:41:20.562Z,2.90
2018-05-02T17:43:54.019Z,2.93
2018-05-02T17:46:27.529Z,2.93
2018-05-02T17:49:01.096Z,3.00
2018-05-02T17:51:36.167Z,3.63
2018-05-02T17:54:09.850Z,3.50
2018-05-02T17:56:46.271Z,3.30
2018-05-02T17:59:29.096Z,3.00
2018-05-02T18:02:02.420Z,3.30
2018-05-02T18:04:42.295Z,3.43
2018-05-02T18:07:21.733Z,3.50
2018-05-02T18:09:55.484Z,3.17
2018-05-02T18:12:28.483Z,3.07
2018-05-02T18:15:02.213Z,3.20
2018-05-02T18:17:35.804Z,3.03
2018-05-02T18:21:12.236Z,2.60
2018-05-02T18:23:45.568Z,3.10
2018-05-02T18:26:20.057Z,3.10
2018-05-02T18:28:53.262Z,2.80
2018-05-02T18:31:26.688Z,2.97
2018-05-02T18:34:04.879Z,3.20
2018-05-02T18:36:38.275Z,3.13
2018-05-02T18:39:11.475Z,3.37
2018-05-02T18:41:45.007Z,3.03
2018-05-02T18:44:18.590Z,3.00
2018-05-02T18:46:53.988Z,2.80
2018-05-02T18:49:27.681Z,3.03
2018-05-02T18:52:00.997Z,2.60
2018-05-02T18:54:34.326Z,3.10
2018-05-02T18:57:08.561Z,2.87
2018-05-02T18:59:46.558Z,3.30
2018-05-02T19:02:22.257Z,3.00
2018-05-02T19:04:56.410Z,3.20
2018-05-02T19:07:31.866Z,3.27
2018-05-02T19:10:05.499Z,3.67
2018-05-02T19:12:40.536Z,3.17
2018-05-02T19:15:13.942Z,2.73
2018-05-02T19:17:51.709Z,2.23
2018-05-02T19:20:41.839Z,2.90
2018-05-02T19:23:15.483Z,2.80
2018-05-02T19:25:54.604Z,2.40
2018-05-02T19:28:29.315Z,2.50
2018-05-02T19:31:12.054Z,3.10
2018-05-02T19:34:00.042Z,2.50
2018-05-02T19:36:34.056Z,2.97
2018-05-02T19:39:22.323Z,2.90
2018-05-02T19:44:12.274Z,2.90
2018-05-02T19:46:45.933Z,2.90
2018-05-02T19:49:19.155Z,2.67
2018-05-02T19:51:58.036Z,2.80
2018-05-02T19:54:31.739Z,2.47
2018-05-02T19:57:05.088Z,2.23
2018-05-02T19:59:38.480Z,2.27
2018-05-02T20:03:16.151Z,2.57
2018-05-02T20:05:49.281Z,2.70
2018-05-02T20:08:26.877Z,2.30
2018-05-02T20:13:10.906Z,2.10
2018-05-02T20:15:45.598Z,2.30
2018-05-02T20:18:19.405Z,2.40
2018-05-02T20:20:52.980Z,2.37
2018-05-02T20:23:28.154Z,2.60
2018-05-02T20:26:01.994Z,2.47
2018-05-02T20:28:36.941Z,2.67
2018-05-02T20:31:10.787Z,2.70
2018-05-02T20:33:44.654Z,2.30
2018-05-02T20:36:18.675Z,2.37
2018-05-02T20:38:53.742Z,2.37
2018-05-02T20:41:26.978Z,2.40
2018-05-02T20:44:00.471Z,2.30
2018-05-02T20:46:33.552Z,2.43
2018-05-02T20:49:09.290Z,2.37
2018-05-02T20:51:42.427Z,2.60
2018-05-02T20:54:15.451Z,2.60
2018-05-02T20:56:48.775Z,2.70
2018-05-02T20:59:22.341Z,2.50
2018-05-02T21:01:55.682Z,3.20
2018-05-02T21:04:31.101Z,2.80
2018-05-02T21:07:04.336Z,2.47
2018-05-02T21:09:38.238Z,3.20
2018-05-02T21:12:11.660Z,2.40
2018-05-02T21:14:44.895Z,2.70
2018-05-02T21:17:18.152Z,2.90
2018-05-02T21:19:51.379Z,2.70
2018-05-02T21:29:15.558Z,3.10
2018-05-02T21:31:49.375Z,3.00
2018-05-02T21:34:25.670Z,2.73
2018-05-02T21:36:59.598Z,3.53
2018-05-02T21:39:32.868Z,3.00
2018-05-02T21:42:07.015Z,3.27
2018-05-02T21:44:40.401Z,3.13
2018-05-02T21:47:13.716Z,3.20
2018-05-02T21:49:48.155Z,4.00
2018-05-02T21:52:21.816Z,3.40
2018-05-02T21:54:55.797Z,3.20
2018-05-02T21:57:30.431Z,3.00
2018-05-02T22:00:03.856Z,3.70
2018-05-02T22:02:38.025Z,3.00
2018-05-02T22:05:12.196Z,3.50
2018-05-02T22:07:46.441Z,3.00
2018-05-02T22:10:22.562Z,3.30
2018-05-02T22:12:57.600Z,3.27
2018-05-02T22:15:31.553Z,3.30
2018-05-02T22:18:04.666Z,3.07
2018-05-02T22:20:39.033Z,3.40
2018-05-02T22:23:12.900Z,2.60
2018-05-02T22:25:46.004Z,3.43
2018-05-02T22:28:19.777Z,3.20
2018-05-02T22:30:54.165Z,3.23
2018-05-02T22:33:27.270Z,3.70
2018-05-02T22:36:00.407Z,3.47
2018-05-02T22:38:35.584Z,3.40
2018-05-02T22:41:08.530Z,3.37
2018-05-02T22:43:42.053Z,3.30
2018-05-02T22:46:15.559Z,3.37
2018-05-02T22:48:48.621Z,4.00
2018-05-02T22:51:22.526Z,3.77
2018-05-02T22:53:55.748Z,3.47
2018-05-02T22:56:30.436Z,3.37
2018-05-02T22:59:03.699Z,4.10
2018-05-02T23:01:36.982Z,3.70
2018-05-02T23:04:10.731Z,3.77
2018-05-02T23:06:43.791Z,4.57
2018-05-02T23:09:17.028Z,4.17
2018-05-02T23:11:50.554Z,3.90
2018-05-02T23:14:23.650Z,4.30
2018-05-02T23:16:56.936Z,3.97
2018-05-02T23:19:30.444Z,4.00
2018-05-02T23:22:03.496Z,3.47
2018-05-02T23:24:38.405Z,3.30
2018-05-02T23:27:11.762Z,3.50
2018-05-02T23:29:44.847Z,3.00
2018-05-02T23:32:19.322Z,3.20
2018-05-02T23:34:52.872Z,2.80
2018-05-02T23:37:25.977Z,3.27
2018-05-02T23:39:59.296Z,3.13
2018-05-02T23:42:33.445Z,3.03
2018-05-02T23:45:06.521Z,3.23
2018-05-02T23:47:39.819Z,3.17
2018-05-02T23:50:13.154Z,3.13
2018-05-02T23:52:46.148Z,3.23
2018-05-02T23:55:19.288Z,3.17
2018-05-02T23:57:52.970Z,3.00
